メインページ
METAR-TAF:

METAR-TAF

空港 :

リロングウェ国際空港

リロングウェ, マラウイ

緯度: 13-47S, 経度: 033-46E, 海抜: 1229m

現時点の気象観測

当レポートは2時間40分前の14:00(UTC)に作成
の風 9kt
気温 25°C
湿度 50%
気圧 1020 hPa
視程10km以上
高度3000ftの雲はほとんどない

METAR: FWKI 161400Z 09009KT 9999 FEW030 25/14 Q1020 NOSIG

時間: 18:40 (16:40 UTC)

予報

当レポートは6時間30分前の10:10(UTC)に作成
予報は16日の 12時(UTC)から 17日の 18時(UTC)まで有効
の風 8kt
視程10km以上
高度2200ftの千切れ雲あり
16日の 16時(UTC)から 16日の 20時(UTC)まで徐々に
の風 10kt
視程10km以上
高度2000ftの雲はほとんどない
17日の 00時(UTC)から 17日の 02時(UTC)まで徐々に
東/南東の風 8kt
視程10km以上
高度500ftの雲はほとんどない
高度1200ftの千切れ雲あり
確率 30% :
17日の 03時(UTC)から 17日の 05時(UTC)まで一時的に
の風 3kt
視程: 6000m
高度500ftの雲はほとんどない
高度1300ftの曇り
近辺で霧
確率 30% :
17日の 06時(UTC)から 17日の 08時(UTC)まで一時的に
の風 6kt
視程10km以上
高度600ftの雲はほとんどない
高度1600ftの千切れ雲あり
小霧雨,

TAF: FWKI 161010Z 1612/1718 09008KT 9999 BKN022 BECMG 1616/1620 18010KT 9999 FEW020 BECMG 1700/1702 12008KT 9999 FEW005 BKN012 PROB30 TEMPO 1703/1705 09003KT 6000 VCFG FEW005 OVC013 PROB30 TEMPO 1706/1708 09006KT 9999 -DZ FEW006 BKN016

4,000以上の空港の気象観測と天気予報(METAR報とTAF報)

利用可能な観測所は地図上に黄色い丸と赤い丸で示す。

丸の上にカーソルを重ねると観測所名を参照できる。

次にクリックすると気象観測と天気予報を参照できる。

マップの切り替え:黒色「×」印の緑ボタンをクリックして拡大、「-」印の緑ボタンをクリックして縮小、緑色の三角印をクリックして隣りの地図に切り替え


METAR-TAF: